sensor_id;sensor_type;location;lat;lon;timestamp;pressure;altitude;pressure_sealevel;temperature;humidity
37776;BME280;23614;33.774;130.514;2023-04-06T19:50:44;100473.33;;;14.47;54.68
37776;BME280;23614;33.774;130.514;2023-04-06T19:53:08;100469.70;;;14.47;54.97
37776;BME280;23614;33.774;130.514;2023-04-06T19:55:33;100470.12;;;13.99;56.12
37776;BME280;23614;33.774;130.514;2023-04-06T19:57:59;100467.36;;;14.33;56.20
37776;BME280;23614;33.774;130.514;2023-04-06T20:00:25;100470.19;;;13.74;56.77
37776;BME280;23614;33.774;130.514;2023-04-06T20:02:51;100462.50;;;14.42;56.23
37776;BME280;23614;33.774;130.514;2023-04-06T20:05:17;100448.65;;;13.55;57.62
37776;BME280;23614;33.774;130.514;2023-04-06T20:07:43;100441.62;;;14.14;56.56
37776;BME280;23614;33.774;130.514;2023-04-06T20:10:09;100437.67;;;14.28;56.34
37776;BME280;23614;33.774;130.514;2023-04-06T20:12:35;100433.61;;;14.03;56.33
37776;BME280;23614;33.774;130.514;2023-04-06T20:15:01;100438.16;;;14.16;56.02
37776;BME280;23614;33.774;130.514;2023-04-06T20:17:27;100448.12;;;14.26;55.59
37776;BME280;23614;33.774;130.514;2023-04-06T20:19:53;100466.74;;;14.02;56.47
37776;BME280;23614;33.774;130.514;2023-04-06T20:22:19;100479.41;;;13.42;57.42
37776;BME280;23614;33.774;130.514;2023-04-06T20:24:45;100473.08;;;13.66;57.19
37776;BME280;23614;33.774;130.514;2023-04-06T20:27:11;100466.86;;;14.48;56.11
37776;BME280;23614;33.774;130.514;2023-04-06T20:29:37;100475.49;;;13.60;57.63
37776;BME280;23614;33.774;130.514;2023-04-06T20:32:03;100469.02;;;14.05;56.71
37776;BME280;23614;33.774;130.514;2023-04-06T20:34:29;100478.40;;;13.87;57.38
37776;BME280;23614;33.774;130.514;2023-04-06T20:36:55;100485.14;;;14.23;56.62
37776;BME280;23614;33.774;130.514;2023-04-06T20:39:21;100492.69;;;13.03;58.87
37776;BME280;23614;33.774;130.514;2023-04-06T20:41:47;100491.36;;;13.48;58.26
37776;BME280;23614;33.774;130.514;2023-04-06T20:44:13;100487.82;;;12.14;60.92
37776;BME280;23614;33.774;130.514;2023-04-06T20:46:39;100486.58;;;11.86;62.40
37776;BME280;23614;33.774;130.514;2023-04-06T20:49:05;100491.98;;;12.76;60.26
37776;BME280;23614;33.774;130.514;2023-04-06T20:51:31;100491.37;;;12.78;59.89
37776;BME280;23614;33.774;130.514;2023-04-06T20:53:57;100486.66;;;13.09;59.27
37776;BME280;23614;33.774;130.514;2023-04-06T20:56:23;100502.68;;;12.11;61.13
37776;BME280;23614;33.774;130.514;2023-04-06T20:58:50;100516.94;;;12.52;60.80
37776;BME280;23614;33.774;130.514;2023-04-06T21:01:16;100526.01;;;13.03;59.80
37776;BME280;23614;33.774;130.514;2023-04-06T21:03:42;100542.30;;;12.93;59.65
37776;BME280;23614;33.774;130.514;2023-04-06T21:06:07;100543.19;;;13.08;59.11
37776;BME280;23614;33.774;130.514;2023-04-06T21:08:33;100529.37;;;13.47;58.19
37776;BME280;23614;33.774;130.514;2023-04-06T21:10:59;100530.83;;;13.43;57.46
37776;BME280;23614;33.774;130.514;2023-04-06T21:13:25;100530.41;;;13.69;56.86
37776;BME280;23614;33.774;130.514;2023-04-06T21:15:51;100532.47;;;13.87;56.18
37776;BME280;23614;33.774;130.514;2023-04-06T21:18:17;100541.23;;;14.07;55.87
37776;BME280;23614;33.774;130.514;2023-04-06T21:20:43;100544.44;;;13.95;55.81
37776;BME280;23614;33.774;130.514;2023-04-06T21:23:09;100539.17;;;14.35;55.24
37776;BME280;23614;33.774;130.514;2023-04-06T21:25:37;100542.93;;;14.27;55.37
37776;BME280;23614;33.774;130.514;2023-04-06T21:28:01;100549.06;;;13.99;56.17
37776;BME280;23614;33.774;130.514;2023-04-06T21:30:27;100555.55;;;13.48;57.52
37776;BME280;23614;33.774;130.514;2023-04-06T21:32:53;100544.30;;;14.17;56.45
37776;BME280;23614;33.774;130.514;2023-04-06T21:35:19;100545.77;;;13.83;56.79
37776;BME280;23614;33.774;130.514;2023-04-06T21:37:45;100549.69;;;14.19;55.87
37776;BME280;23614;33.774;130.514;2023-04-06T21:40:12;100550.28;;;14.31;55.60
37776;BME280;23614;33.774;130.514;2023-04-06T21:42:37;100551.46;;;14.22;55.20
37776;BME280;23614;33.774;130.514;2023-04-06T21:45:03;100553.39;;;14.25;55.19
37776;BME280;23614;33.774;130.514;2023-04-06T21:47:29;100553.02;;;14.32;54.86
37776;BME280;23614;33.774;130.514;2023-04-06T21:49:55;100556.57;;;14.58;54.07
37776;BME280;23614;33.774;130.514;2023-04-06T21:52:21;100565.84;;;14.26;54.57
37776;BME280;23614;33.774;130.514;2023-04-06T21:54:47;100550.77;;;13.97;54.97
37776;BME280;23614;33.774;130.514;2023-04-06T21:57:13;100529.87;;;14.65;54.47
37776;BME280;23614;33.774;130.514;2023-04-06T21:59:39;100549.28;;;14.13;54.49
37776;BME280;23614;33.774;130.514;2023-04-06T22:02:06;100568.37;;;13.75;55.52
37776;BME280;23614;33.774;130.514;2023-04-06T22:04:31;100573.39;;;14.39;54.56
37776;BME280;23614;33.774;130.514;2023-04-06T22:06:57;100570.77;;;14.01;55.00
37776;BME280;23614;33.774;130.514;2023-04-06T22:09:22;100543.59;;;14.36;54.47
37776;BME280;23614;33.774;130.514;2023-04-06T22:11:48;100536.53;;;14.64;53.86
37776;BME280;23614;33.774;130.514;2023-04-06T22:14:15;100547.90;;;14.67;53.87
37776;BME280;23614;33.774;130.514;2023-04-06T22:16:41;100566.78;;;14.92;53.54
37776;BME280;23614;33.774;130.514;2023-04-06T22:19:07;100568.85;;;15.02;53.07
37776;BME280;23614;33.774;130.514;2023-04-06T22:21:33;100564.86;;;15.13;53.14
37776;BME280;23614;33.774;130.514;2023-04-06T22:23:59;100562.09;;;15.31;52.68
37776;BME280;23614;33.774;130.514;2023-04-06T22:26:25;100571.98;;;15.33;51.96
37776;BME280;23614;33.774;130.514;2023-04-06T22:28:51;100575.41;;;15.39;51.90
37776;BME280;23614;33.774;130.514;2023-04-06T22:31:17;100565.93;;;15.29;51.75
37776;BME280;23614;33.774;130.514;2023-04-06T22:33:43;100568.00;;;15.23;51.70
37776;BME280;23614;33.774;130.514;2023-04-06T22:36:09;100561.68;;;15.70;51.31
37776;BME280;23614;33.774;130.514;2023-04-06T22:38:35;100569.59;;;14.86;52.57
37776;BME280;23614;33.774;130.514;2023-04-06T22:41:01;100566.73;;;15.05;52.06
37776;BME280;23614;33.774;130.514;2023-04-06T22:43:27;100570.88;;;15.01;52.18
37776;BME280;23614;33.774;130.514;2023-04-06T22:45:52;100558.89;;;15.13;52.02
37776;BME280;23614;33.774;130.514;2023-04-06T22:48:19;100559.61;;;15.31;51.47
37776;BME280;23614;33.774;130.514;2023-04-06T22:50:45;100564.99;;;14.45;52.29
37776;BME280;23614;33.774;130.514;2023-04-06T22:53:11;100569.75;;;15.09;51.73
37776;BME280;23614;33.774;130.514;2023-04-06T22:55:39;100578.92;;;15.23;51.30
37776;BME280;23614;33.774;130.514;2023-04-06T22:58:03;100584.26;;;15.56;50.91
37776;BME280;23614;33.774;130.514;2023-04-06T23:00:29;100593.27;;;15.12;51.86
37776;BME280;23614;33.774;130.514;2023-04-06T23:02:55;100583.42;;;15.22;51.58
37776;BME280;23614;33.774;130.514;2023-04-06T23:05:21;100575.58;;;15.21;51.37
37776;BME280;23614;33.774;130.514;2023-04-06T23:07:46;100575.44;;;15.25;51.16
37776;BME280;23614;33.774;130.514;2023-04-06T23:10:13;100584.46;;;15.53;51.02
37776;BME280;23614;33.774;130.514;2023-04-06T23:12:39;100582.32;;;14.73;52.72
37776;BME280;23614;33.774;130.514;2023-04-06T23:15:05;100582.67;;;15.33;51.03
37776;BME280;23614;33.774;130.514;2023-04-06T23:17:31;100587.68;;;15.41;50.72
37776;BME280;23614;33.774;130.514;2023-04-06T23:19:57;100597.10;;;15.57;50.70
37776;BME280;23614;33.774;130.514;2023-04-06T23:22:23;100587.72;;;15.92;49.89
37776;BME280;23614;33.774;130.514;2023-04-06T23:24:49;100584.75;;;15.91;49.79
37776;BME280;23614;33.774;130.514;2023-04-06T23:27:15;100594.97;;;15.40;50.94
37776;BME280;23614;33.774;130.514;2023-04-06T23:29:41;100597.87;;;14.80;51.99
37776;BME280;23614;33.774;130.514;2023-04-06T23:32:07;100603.11;;;14.78;52.40
37776;BME280;23614;33.774;130.514;2023-04-06T23:34:33;100601.61;;;14.95;52.38
37776;BME280;23614;33.774;130.514;2023-04-06T23:36:58;100608.29;;;15.10;51.86
37776;BME280;23614;33.774;130.514;2023-04-06T23:39:25;100616.71;;;14.98;52.24
37776;BME280;23614;33.774;130.514;2023-04-06T23:41:51;100619.21;;;15.02;51.90
37776;BME280;23614;33.774;130.514;2023-04-06T23:44:17;100622.99;;;14.89;51.94
37776;BME280;23614;33.774;130.514;2023-04-06T23:46:42;100616.34;;;15.07;51.59
37776;BME280;23614;33.774;130.514;2023-04-06T23:49:09;100621.31;;;15.01;51.32
37776;BME280;23614;33.774;130.514;2023-04-06T23:51:35;100620.81;;;15.22;51.21
37776;BME280;23614;33.774;130.514;2023-04-06T23:54:01;100621.84;;;15.12;51.46
37776;BME280;23614;33.774;130.514;2023-04-06T23:56:26;100613.57;;;15.02;51.40
37776;BME280;23614;33.774;130.514;2023-04-06T23:58:53;100611.39;;;15.25;51.11
